Time;durP1;ratioP1;P1;durP2;ratioP2;P2;SDS_P1;SDS_P2;PMS_P1;PMS_P2;Temp;Humidity;BMP_temperature;BMP_pressure;BME280_temperature;BME280_humidity;BME280_pressure;Samples;Min_cycle;Max_cycle;Signal;HPM_P1;HPM_P2
2023/06/11 00:02:24;;;;;;;;;17.33;16.33;;;;;28.37;41.51;101146.88;5081708;27;45492;-71
2023/06/11 00:04:50;;;;;;;;;17.50;16.00;;;;;28.45;41.44;101146.66;5077079;28;45470;-70
2023/06/11 00:07:17;;;;;;;;;17.25;15.00;;;;;28.53;41.20;101140.22;5091506;27;45366;-71
2023/06/11 00:09:42;;;;;;;;;14.75;14.75;;;;;28.57;41.34;101137.94;5086555;27;45394;-70
2023/06/11 00:12:08;;;;;;;;;16.00;16.00;;;;;28.65;41.07;101134.97;5077364;27;45268;-71
2023/06/11 00:14:33;;;;;;;;;17.25;17.25;;;;;28.66;40.70;101128.59;5077440;28;45442;-70
2023/06/11 00:16:59;;;;;;;;;16.00;16.00;;;;;28.73;40.85;101123.16;5086263;27;45346;-70
2023/06/11 00:19:28;;;;;;;;;15.50;15.00;;;;;28.82;40.80;101135.25;5078209;27;46394;-71
2023/06/11 00:21:56;;;;;;;;;15.75;15.00;;;;;28.85;40.26;101128.63;5076278;27;45658;-71
2023/06/11 00:24:22;;;;;;;;;15.75;15.00;;;;;28.91;40.61;101122.38;5077620;27;45414;-71
2023/06/11 00:26:47;;;;;;;;;16.00;15.00;;;;;28.86;40.38;101114.19;5077464;28;45269;-71
2023/06/11 00:29:13;;;;;;;;;16.25;15.25;;;;;28.95;40.53;101120.09;5077162;28;46051;-71
2023/06/11 00:31:38;;;;;;;;;14.00;14.00;;;;;28.99;40.82;101115.91;5077480;27;45429;-71
2023/06/11 00:34:04;;;;;;;;;16.25;15.00;;;;;29.04;40.44;101121.44;5077089;27;45303;-71
2023/06/11 00:36:29;;;;;;;;;16.00;15.25;;;;;29.02;39.97;101109.31;5092075;27;45683;-71
2023/06/11 00:38:55;;;;;;;;;12.00;12.00;;;;;29.07;40.18;101115.63;5076786;27;46390;-71
2023/06/11 00:41:21;;;;;;;;;16.50;15.25;;;;;29.10;40.28;101116.25;5067168;27;45783;-70
2023/06/11 00:43:52;;;;;;;;;18.50;15.50;;;;;29.13;40.29;101118.50;5091074;27;45403;-71
2023/06/11 00:46:18;;;;;;;;;15.67;14.33;;;;;29.18;40.15;101126.69;5077239;27;45283;-71
2023/06/11 00:48:43;;;;;;;;;15.75;14.75;;;;;29.17;39.82;101133.91;5077075;27;45330;-71
2023/06/11 00:51:10;;;;;;;;;17.00;14.75;;;;;29.20;39.92;101129.97;5076811;27;45383;-71
2023/06/11 00:53:36;;;;;;;;;18.75;16.50;;;;;29.22;39.92;101130.56;5077112;27;45439;-71
2023/06/11 00:56:02;;;;;;;;;15.75;15.50;;;;;29.23;39.72;101126.00;5077073;28;45284;-71
2023/06/11 00:58:29;;;;;;;;;16.25;14.50;;;;;29.25;39.20;101135.47;5076887;28;46679;-70
2023/06/11 01:00:57;;;;;;;;;14.67;11.33;;;;;29.24;39.65;101131.16;5076849;27;45391;-71
2023/06/11 01:03:33;;;;;;;;;16.00;15.00;;;;;29.29;39.38;101149.25;5077256;28;45334;-71
2023/06/11 01:06:06;;;;;;;;;15.25;13.25;;;;;29.30;39.19;101142.88;5076497;28;45237;-71
2023/06/11 01:08:35;;;;;;;;;14.75;14.75;;;;;29.30;39.06;101142.88;5075418;28;46903;-71
2023/06/11 01:11:01;;;;;;;;;13.00;13.00;;;;;29.34;39.44;101143.22;5076031;28;45381;-71
2023/06/11 01:13:27;;;;;;;;;16.00;16.00;;;;;29.30;39.50;101137.50;5077153;27;45700;-71
2023/06/11 01:16:00;;;;;;;;;14.00;14.00;;;;;29.35;39.41;101136.81;5076249;28;45375;-71
2023/06/11 01:18:28;;;;;;;;;12.50;12.50;;;;;29.37;39.28;101142.78;5075514;27;48034;-71
2023/06/11 01:21:04;;;;;;;;;15.75;14.25;;;;;29.34;39.38;101127.97;5065984;27;45524;-71
2023/06/11 01:23:41;;;;;;;;;15.50;12.50;;;;;29.39;39.03;101135.31;5077014;27;45350;-71
2023/06/11 01:26:28;;;;;;;;;14.00;13.25;;;;;29.41;39.26;101135.91;5076731;28;45445;-71
2023/06/11 01:28:58;;;;;;;;;11.50;11.50;;;;;29.42;39.10;101140.25;5076251;27;45414;-71
2023/06/11 01:31:29;;;;;;;;;16.00;14.00;;;;;29.42;38.91;101142.09;5076580;28;45324;-71
2023/06/11 01:33:56;;;;;;;;;15.25;15.00;;;;;29.40;39.19;101142.34;5076188;27;45296;-71
2023/06/11 01:36:24;;;;;;;;;13.25;11.50;;;;;29.39;39.14;101135.31;5076378;27;45289;-71
2023/06/11 01:38:51;;;;;;;;;14.00;12.50;;;;;29.38;39.46;101126.47;5073949;27;46612;-71
2023/06/11 01:41:17;;;;;;;;;14.25;14.25;;;;;29.44;38.94;101146.19;5076066;27;45446;-71
2023/06/11 01:43:42;;;;;;;;;17.25;14.25;;;;;29.41;38.97;101141.28;5076257;27;45446;-71
2023/06/11 01:46:07;;;;;;;;;12.00;12.00;;;;;29.38;39.07;101136.38;5076461;28;45330;-71
2023/06/11 01:48:33;;;;;;;;;12.50;12.50;;;;;29.44;38.81;101137.31;5076038;27;46535;-71
2023/06/11 01:50:59;;;;;;;;;14.25;12.75;;;;;29.40;38.84;101140.47;5075823;27;45573;-71
2023/06/11 01:53:24;;;;;;;;;16.25;14.50;;;;;29.41;38.75;101141.28;5076142;28;45287;-71
2023/06/11 01:55:50;;;;;;;;;14.00;14.00;;;;;29.42;38.77;101142.09;5075853;28;45338;-71
2023/06/11 01:58:16;;;;;;;;;14.25;13.50;;;;;29.40;38.69;101129.75;5062538;28;46544;-71
2023/06/11 02:00:42;;;;;;;;;13.33;13.33;;;;;29.44;39.02;101132.78;5091918;27;45354;-72
2023/06/11 02:03:08;;;;;;;;;12.33;11.33;;;;;29.43;38.67;101133.03;5075946;27;45425;-71
2023/06/11 02:05:33;;;;;;;;;15.50;15.00;;;;;29.45;38.84;101139.81;5076503;28;45364;-70
2023/06/11 02:07:59;;;;;;;;;15.25;15.25;;;;;29.46;38.64;101135.25;5075458;28;46493;-71
2023/06/11 02:10:24;;;;;;;;;12.50;12.50;;;;;29.46;38.81;101136.06;5074232;28;45294;-71
2023/06/11 02:12:50;;;;;;;;;14.25;14.25;;;;;29.44;38.37;101127.44;5072913;27;45467;-71
2023/06/11 02:15:15;;;;;;;;;12.25;12.00;;;;;29.47;38.76;101132.34;5067164;27;45492;-71
2023/06/11 02:17:40;;;;;;;;;14.00;13.00;;;;;29.49;38.83;101134.78;5075702;27;45560;-71
2023/06/11 02:20:07;;;;;;;;;14.00;13.00;;;;;29.51;38.54;101146.94;5075341;27;45438;-71
2023/06/11 02:22:33;;;;;;;;;13.75;13.75;;;;;29.52;38.79;101139.72;5075824;27;45290;-71
2023/06/11 02:24:59;;;;;;;;;12.75;12.75;;;;;29.50;38.57;101144.47;5075284;28;46299;-71
2023/06/11 02:27:24;;;;;;;;;13.25;13.25;;;;;29.50;38.69;101144.47;5075572;27;46355;-71
2023/06/11 02:29:50;;;;;;;;;13.67;13.33;;;;;29.47;38.60;101140.38;5075892;27;45282;-71
2023/06/11 02:32:15;;;;;;;;;13.25;13.25;;;;;29.51;38.56;101144.25;5074486;27;45865;-71
2023/06/11 02:34:41;;;;;;;;;14.50;12.75;;;;;29.51;38.43;101146.09;5075759;27;45402;-71
2023/06/11 02:37:07;;;;;;;;;12.50;12.50;;;;;29.50;38.79;101136.44;5075592;28;45395;-71
2023/06/11 02:39:33;;;;;;;;;12.75;11.75;;;;;29.48;38.66;101125.97;5064471;28;45506;-71
2023/06/11 02:41:58;;;;;;;;;15.25;14.75;;;;;29.45;38.66;101123.72;5071321;27;45502;-71
2023/06/11 02:44:24;;;;;;;;;15.25;13.00;;;;;29.36;38.36;101112.47;5075763;27;45464;-71
2023/06/11 02:46:49;;;;;;;;;11.25;11.25;;;;;29.52;38.44;101137.84;5075265;27;46366;-71
2023/06/11 02:49:14;;;;;;;;;13.75;13.75;;;;;29.51;38.35;101136.19;5091023;27;45381;-71
2023/06/11 02:51:40;;;;;;;;;13.50;13.00;;;;;29.46;38.76;101121.88;5075398;27;45387;-71
2023/06/11 02:54:06;;;;;;;;;16.50;13.50;;;;;29.50;38.67;101131.09;5067894;27;45503;-71
2023/06/11 02:56:32;;;;;;;;;18.25;14.75;;;;;29.54;38.37;101136.78;5075496;27;45513;-71
2023/06/11 02:58:57;;;;;;;;;14.00;12.00;;;;;29.36;38.53;101107.13;5074798;27;45518;-71
2023/06/11 03:01:23;;;;;;;;;15.50;15.25;;;;;29.50;38.67;101133.75;5075039;27;45669;-72
2023/06/11 03:03:48;;;;;;;;;14.00;12.33;;;;;29.49;38.52;101130.25;5075382;27;45320;-71
2023/06/11 03:06:13;;;;;;;;;15.50;14.25;;;;;29.45;38.20;101123.72;5074368;28;47419;-71
2023/06/11 03:08:39;;;;;;;;;15.50;13.25;;;;;29.45;38.55;101120.22;5075217;28;45319;-71
2023/06/11 03:11:04;;;;;;;;;17.25;16.50;;;;;29.51;38.28;101138.06;5075133;28;45454;-71
2023/06/11 03:13:29;;;;;;;;;13.33;13.33;;;;;29.51;38.64;101130.84;5075565;27;45351;-71
2023/06/11 03:15:55;;;;;;;;;14.67;13.00;;;;;29.52;38.11;101132.50;5074433;27;46230;-71
2023/06/11 03:18:20;;;;;;;;;14.67;12.00;;;;;29.54;38.36;101128.75;5075255;28;45284;-71
2023/06/11 03:20:46;;;;;;;;;14.75;13.75;;;;;29.49;38.36;101124.91;5074471;27;45356;-71
2023/06/11 03:23:15;;;;;;;;;11.33;10.33;;;;;29.52;38.35;101135.19;5075097;28;45569;-71
2023/06/11 03:25:42;;;;;;;;;16.25;13.50;;;;;29.57;38.29;101147.06;5074717;28;46410;-71
2023/06/11 03:28:08;;;;;;;;;16.00;13.50;;;;;29.52;38.49;101147.75;5077315;27;45429;-71
2023/06/11 03:30:33;;;;;;;;;11.50;11.50;;;;;29.54;38.10;101139.47;5077377;27;45394;-71
2023/06/11 03:32:58;;;;;;;;;13.00;13.00;;;;;29.49;38.43;101146.34;5075144;28;45271;-71
2023/06/11 03:35:24;;;;;;;;;12.25;11.75;;;;;29.55;38.21;101159.88;5074296;28;45448;-71
2023/06/11 03:37:49;;;;;;;;;14.25;13.00;;;;;29.54;38.51;101158.25;5074607;27;45436;-71
2023/06/11 03:40:15;;;;;;;;;14.50;12.25;;;;;29.46;38.52;101141.41;5061290;27;45449;-71
2023/06/11 03:42:40;;;;;;;;;14.25;12.75;;;;;29.52;38.21;101155.78;5074942;28;45338;-71
2023/06/11 03:45:06;;;;;;;;;13.50;13.50;;;;;29.51;38.15;101148.78;5077238;28;46537;-71
2023/06/11 03:47:32;;;;;;;;;13.25;13.25;;;;;29.50;38.57;101152.53;5078488;28;45287;-71
2023/06/11 03:49:57;;;;;;;;;14.75;12.25;;;;;29.51;38.61;101148.78;5091565;27;45556;-71
2023/06/11 03:52:22;;;;;;;;;11.25;11.25;;;;;29.51;38.24;101154.97;5077949;27;45510;-71
2023/06/11 03:54:47;;;;;;;;;10.00;10.00;;;;;29.56;38.21;101165.00;5078139;27;47284;-71
2023/06/11 03:57:13;;;;;;;;;10.50;10.50;;;;;29.53;38.24;101160.13;5077773;28;45464;-71
2023/06/11 03:59:39;;;;;;;;;13.25;12.50;;;;;29.51;37.88;101154.97;5093616;27;45537;-71
2023/06/11 04:02:04;;;;;;;;;14.25;14.25;;;;;29.45;38.05;101134.44;5077788;27;45409;-71
2023/06/11 04:04:31;;;;;;;;;13.33;13.33;;;;;29.53;38.44;101149.41;5077498;27;45550;-71
2023/06/11 04:06:56;;;;;;;;;16.33;15.00;;;;;29.53;38.20;101157.44;5077621;27;45443;-71
2023/06/11 04:09:23;;;;;;;;;13.00;13.00;;;;;29.50;38.40;101153.34;5077161;27;45405;-71
2023/06/11 04:11:48;;;;;;;;;15.50;14.75;;;;;29.39;38.44;101143.38;5078161;27;45300;-71
2023/06/11 04:14:13;;;;;;;;;13.75;12.50;;;;;29.52;38.21;101164.66;5077391;27;46163;-71
2023/06/11 04:16:39;;;;;;;;;15.25;12.50;;;;;29.46;38.59;101157.50;5077500;27;45425;-71
2023/06/11 04:19:04;;;;;;;;;13.00;12.75;;;;;29.49;38.20;101157.06;5077385;27;45493;-71
2023/06/11 04:21:29;;;;;;;;;14.25;13.25;;;;;29.52;38.52;101163.84;5078101;27;45347;-71
2023/06/11 04:23:55;;;;;;;;;13.00;12.00;;;;;29.55;38.40;101168.75;5087154;27;47254;-71
2023/06/11 04:26:23;;;;;;;;;12.00;11.75;;;;;29.50;38.67;101160.56;5077764;27;45308;-71
2023/06/11 04:28:49;;;;;;;;;13.75;13.75;;;;;29.53;38.26;101173.53;5077797;27;45301;-71
2023/06/11 04:31:14;;;;;;;;;14.75;14.50;;;;;29.50;38.38;101166.75;5077657;27;45324;-71
2023/06/11 04:33:40;;;;;;;;;14.00;11.50;;;;;29.53;38.15;101165.47;5076616;27;45597;-71
2023/06/11 04:36:07;;;;;;;;;10.50;10.00;;;;;29.55;38.41;101170.59;5077501;27;45530;-71
2023/06/11 04:38:34;;;;;;;;;14.00;13.00;;;;;29.52;38.42;101172.69;5075155;27;45486;-71
2023/06/11 04:41:00;;;;;;;;;11.75;11.75;;;;;29.56;38.42;101181.09;5066412;28;45369;-71
2023/06/11 04:43:26;;;;;;;;;14.75;14.50;;;;;29.54;38.23;101167.09;5077015;27;45286;-71
2023/06/11 04:45:55;;;;;;;;;16.00;14.00;;;;;29.56;38.31;101169.56;5077407;27;45257;-71
2023/06/11 04:48:22;;;;;;;;;11.33;11.33;;;;;29.57;38.19;101172.03;5076983;28;45316;-71
2023/06/11 04:50:51;;;;;;;;;15.25;13.50;;;;;29.54;38.39;101168.97;5077117;27;45434;-71
2023/06/11 04:53:24;;;;;;;;;12.50;11.50;;;;;29.54;38.06;101160.91;5076938;27;45601;-71
2023/06/11 04:55:55;;;;;;;;;14.50;13.00;;;;;29.57;38.22;101179.25;5076338;28;45296;-71
2023/06/11 04:58:23;;;;;;;;;13.75;13.25;;;;;29.57;38.42;101182.75;5076552;27;45439;-71
2023/06/11 05:00:49;;;;;;;;;12.00;11.50;;;;;29.58;38.19;101178.22;5077158;27;45340;-72
2023/06/11 05:03:17;;;;;;;;;12.00;12.00;;;;;29.52;38.71;101174.56;5076622;27;45319;-71
2023/06/11 05:05:49;;;;;;;;;12.50;12.25;;;;;29.57;38.40;101180.06;5076608;27;45379;-71
2023/06/11 05:08:16;;;;;;;;;13.00;13.00;;;;;29.54;38.55;101179.69;5076896;28;45318;-71
2023/06/11 05:10:42;;;;;;;;;12.25;12.25;;;;;29.56;38.14;101183.78;5076447;27;45372;-71
2023/06/11 05:13:07;;;;;;;;;14.00;14.00;;;;;29.50;38.16;101177.47;5075993;28;47122;-72
2023/06/11 05:15:32;;;;;;;;;13.50;13.25;;;;;29.56;38.53;101194.50;5082510;27;46428;-71
2023/06/11 05:17:58;;;;;;;;;13.50;12.50;;;;;29.55;38.35;101195.56;5076490;28;45302;-71
2023/06/11 05:20:26;;;;;;;;;14.75;14.75;;;;;29.58;38.15;101194.28;5075250;27;45490;-71
2023/06/11 05:22:54;;;;;;;;;13.00;13.00;;;;;29.54;38.15;101185.88;5076796;27;45434;-71
2023/06/11 05:25:22;;;;;;;;;14.00;13.00;;;;;29.57;38.14;101195.31;5076623;27;45430;-71
2023/06/11 05:27:52;;;;;;;;;13.25;12.75;;;;;29.54;38.46;101191.22;5076728;28;45254;-71
2023/06/11 05:30:18;;;;;;;;;13.00;13.00;;;;;29.55;38.39;101189.38;5075893;28;45573;-71
2023/06/11 05:32:44;;;;;;;;;13.25;13.25;;;;;29.51;38.17;101189.00;5076220;27;46472;-71
2023/06/11 05:35:09;;;;;;;;;15.33;13.33;;;;;29.58;38.47;101199.66;5076296;27;45442;-71
2023/06/11 05:37:36;;;;;;;;;12.33;12.33;;;;;29.52;38.60;101187.97;5076748;28;45356;-71
2023/06/11 05:40:01;;;;;;;;;13.25;13.25;;;;;29.57;38.25;101203.38;5062870;27;45423;-71
2023/06/11 05:42:26;;;;;;;;;13.75;12.75;;;;;29.52;38.25;101198.69;5076191;27;45665;-71
2023/06/11 05:44:51;;;;;;;;;13.50;12.25;;;;;29.54;38.32;101206.50;5077435;27;45376;-71
2023/06/11 05:47:17;;;;;;;;;15.50;14.25;;;;;29.54;38.22;101201.94;5076162;28;46217;-71
2023/06/11 05:49:42;;;;;;;;;12.25;12.25;;;;;29.54;38.29;101207.31;5076401;28;45514;-71
2023/06/11 05:52:08;;;;;;;;;15.00;14.00;;;;;29.55;38.28;101217.00;5091612;27;47154;-71
2023/06/11 05:54:33;;;;;;;;;14.75;13.75;;;;;29.54;38.36;101215.34;5076207;27;45627;-71
2023/06/11 05:56:58;;;;;;;;;12.33;11.00;;;;;29.56;38.26;101220.50;5076395;27;45425;-71
2023/06/11 05:59:24;;;;;;;;;12.25;12.25;;;;;29.52;38.53;101214.75;5075909;27;45463;-71
2023/06/11 06:01:50;;;;;;;;;12.75;12.75;;;;;29.58;38.28;101221.09;5075662;28;45453;-71
2023/06/11 06:04:16;;;;;;;;;12.00;12.00;;;;;29.54;38.08;101220.72;5075708;28;45434;-71
2023/06/11 06:06:42;;;;;;;;;14.00;14.00;;;;;29.49;38.54;101216.03;5076075;27;45449;-71
2023/06/11 06:09:09;;;;;;;;;12.33;12.33;;;;;29.52;38.21;101217.44;5084376;27;45404;-71
2023/06/11 06:11:34;;;;;;;;;14.25;13.25;;;;;29.55;38.30;101225.03;5075723;28;46060;-71
2023/06/11 06:13:59;;;;;;;;;11.75;10.25;;;;;29.55;38.16;101224.22;5075727;27;45358;-71
2023/06/11 06:16:25;;;;;;;;;16.50;13.50;;;;;29.52;38.30;101226.31;5057017;28;45320;-71
2023/06/11 06:18:50;;;;;;;;;15.75;13.75;;;;;29.51;38.24;101216.63;5053250;28;45464;-71
2023/06/11 06:21:15;;;;;;;;;13.00;13.00;;;;;29.55;38.42;101226.91;5055746;28;47074;-71
2023/06/11 06:23:40;;;;;;;;;15.50;14.25;;;;;29.58;38.85;101234.50;5061166;28;45293;-71
2023/06/11 06:26:06;;;;;;;;;14.50;11.75;;;;;29.54;38.77;101228.75;5041842;28;45467;-71
2023/06/11 06:28:34;;;;;;;;;14.00;12.50;;;;;29.59;38.40;101238.81;5055451;28;45526;-71
2023/06/11 06:30:59;;;;;;;;;17.00;15.75;;;;;29.56;38.45;101244.63;5054900;28;45447;-71
2023/06/11 06:33:24;;;;;;;;;16.25;13.50;;;;;29.49;38.39;101229.44;5036772;28;45386;-71
2023/06/11 06:35:50;;;;;;;;;14.25;13.75;;;;;29.59;38.14;101250.34;5055304;28;45493;-71
2023/06/11 06:38:15;;;;;;;;;13.25;13.25;;;;;29.56;38.10;101248.13;5055489;28;45483;-71
2023/06/11 06:40:40;;;;;;;;;16.00;13.50;;;;;29.56;38.37;101239.28;5033145;28;46728;-71
2023/06/11 06:43:06;;;;;;;;;13.50;13.50;;;;;29.43;38.09;101230.34;5048508;28;45441;-71
2023/06/11 06:45:33;;;;;;;;;15.00;14.50;;;;;29.55;38.80;101248.34;5060178;28;45719;-70
2023/06/11 06:47:58;;;;;;;;;16.00;14.00;;;;;29.42;38.31;101228.69;5055140;28;45287;-71
2023/06/11 06:50:23;;;;;;;;;16.00;16.00;;;;;29.60;38.71;101256.53;5033973;28;46764;-71
2023/06/11 06:52:49;;;;;;;;;13.50;12.75;;;;;29.57;38.57;101254.28;5045485;28;45403;-70
2023/06/11 06:55:14;;;;;;;;;12.50;11.75;;;;;29.60;38.06;101253.88;5054276;28;45297;-71
2023/06/11 06:57:40;;;;;;;;;14.50;13.00;;;;;29.57;38.40;101252.44;5050139;28;45258;-71
2023/06/11 07:00:07;;;;;;;;;13.50;13.25;;;;;29.58;38.32;101256.78;5055415;28;45287;-71
2023/06/11 07:02:33;;;;;;;;;13.50;12.75;;;;;29.55;38.31;101251.03;5054875;28;45938;-71
2023/06/11 07:04:58;;;;;;;;;14.00;14.00;;;;;29.60;38.12;101261.91;5045037;28;45643;-70
2023/06/11 07:07:24;;;;;;;;;15.50;13.00;;;;;29.62;38.40;101257.13;5055259;28;45360;-71
2023/06/11 07:09:50;;;;;;;;;14.25;13.25;;;;;29.58;38.47;101245.22;5054516;28;46662;-71
2023/06/11 07:12:15;;;;;;;;;11.75;11.00;;;;;29.56;38.29;101247.31;5066408;28;45498;-71
2023/06/11 07:14:40;;;;;;;;;16.67;14.00;;;;;29.65;38.81;101255.88;5057867;28;45532;-70
2023/06/11 07:17:06;;;;;;;;;13.50;13.50;;;;;29.66;38.57;101263.72;5075287;28;45442;-71
2023/06/11 07:19:31;;;;;;;;;20.75;17.50;;;;;29.58;38.42;101246.06;5077049;28;46460;-71
2023/06/11 07:21:56;;;;;;;;;13.00;11.00;;;;;29.63;38.47;101258.78;5078192;28;45379;-70
2023/06/11 07:24:23;;;;;;;;;17.00;13.00;;;;;29.61;38.33;101261.66;5078759;27;45385;-72
2023/06/11 07:26:48;;;;;;;;;17.00;14.00;;;;;29.66;37.96;101261.03;5081247;27;45608;-70
2023/06/11 07:29:13;;;;;;;;;15.50;11.50;;;;;29.68;38.20;101268.84;5089101;27;47463;-71
2023/06/11 07:31:39;;;;;;;;;9.00;8.00;;;;;29.69;38.55;101279.31;5073994;28;45311;-71
2023/06/11 07:34:06;;;;;;;;;15.25;13.75;;;;;29.67;38.50;101273.38;5077484;28;45525;-72
2023/06/11 07:36:31;;;;;;;;;30.75;27.25;;;;;29.68;37.88;101271.50;5077664;27;45406;-71
2023/06/11 07:38:56;;;;;;;;;32.25;28.50;;;;;29.51;37.67;101274.75;5072488;28;45225;-71
2023/06/11 07:41:22;;;;;;;;;30.50;27.75;;;;;29.34;38.00;101269.16;5065745;27;45400;-72
2023/06/11 07:43:47;;;;;;;;;37.25;29.50;;;;;29.18;38.20;101280.22;5076902;27;45532;-72
2023/06/11 07:46:15;;;;;;;;;41.75;29.25;;;;;28.98;38.25;101277.69;5078446;27;45232;-72
2023/06/11 07:48:41;;;;;;;;;39.25;32.25;;;;;28.85;38.34;101286.63;5077454;27;46066;-71
2023/06/11 07:51:07;;;;;;;;;31.50;29.75;;;;;28.63;38.80;101284.28;5077427;28;45529;-72
2023/06/11 07:53:33;;;;;;;;;32.50;30.25;;;;;28.52;39.05;101299.19;5092776;27;45517;-74
2023/06/11 07:55:58;;;;;;;;;27.50;26.25;;;;;28.46;39.39;101294.66;5078722;27;45517;-74
2023/06/11 07:58:24;;;;;;;;;27.25;25.50;;;;;28.47;39.18;101285.63;5068513;27;46544;-74
2023/06/11 08:00:49;;;;;;;;;25.00;19.25;;;;;28.50;38.81;101290.53;5084209;27;45711;-74
2023/06/11 08:03:16;;;;;;;;;26.50;24.75;;;;;28.61;38.99;101299.75;5078114;28;45473;-74
2023/06/11 08:05:41;;;;;;;;;25.50;24.00;;;;;28.59;38.96;101293.78;5078042;27;45379;-74
2023/06/11 08:08:07;;;;;;;;;25.50;25.00;;;;;28.66;38.72;101299.91;5077207;27;46402;-74
2023/06/11 08:10:33;;;;;;;;;29.50;28.75;;;;;28.70;38.74;101287.72;5077722;27;45529;-74
2023/06/11 08:12:58;;;;;;;;;30.50;24.50;;;;;28.72;38.75;101295.56;5110530;27;45880;-75
2023/06/11 08:15:24;;;;;;;;;32.00;30.25;;;;;28.71;38.93;101281.34;5077844;27;45574;-74
2023/06/11 08:17:50;;;;;;;;;30.25;28.50;;;;;28.60;39.13;101285.53;5079536;27;46555;-74
2023/06/11 08:20:16;;;;;;;;;30.25;27.75;;;;;28.53;39.16;101276.72;5077625;27;45528;-73
2023/06/11 08:22:42;;;;;;;;;30.25;28.50;;;;;28.50;39.96;101267.25;5077511;27;45469;-74
2023/06/11 08:25:09;;;;;;;;;32.75;29.75;;;;;28.44;39.85;101265.44;5077894;27;45586;-74
2023/06/11 08:27:35;;;;;;;;;33.00;29.75;;;;;28.25;39.82;101238.56;5076947;27;46598;-74
2023/06/11 08:30:00;;;;;;;;;31.25;27.75;;;;;28.37;39.86;101267.28;5092278;27;45745;-74
2023/06/11 08:32:26;;;;;;;;;30.00;29.00;;;;;28.37;39.74;101257.41;5075779;27;45348;-74
2023/06/11 08:34:51;;;;;;;;;28.75;27.00;;;;;28.43;40.04;101268.31;5078620;27;45507;-81
2023/06/11 08:37:17;;;;;;;;;28.00;25.75;;;;;28.33;40.46;101266.09;5087464;27;48064;-77
2023/06/11 08:39:42;;;;;;;;;26.50;22.50;;;;;28.36;40.64;101263.00;5065451;28;45396;-78
2023/06/11 08:42:07;;;;;;;;;31.00;25.25;;;;;28.37;40.83;101265.44;5070492;27;45308;-80
2023/06/11 08:44:34;;;;;;;;;27.00;25.00;;;;;28.44;40.18;101262.75;5102099;27;45296;-74
2023/06/11 08:47:03;;;;;;;;;24.00;22.00;;;;;28.55;39.98;101263.16;5076813;27;45334;-73
2023/06/11 08:49:30;;;;;;;;;27.50;22.25;;;;;28.60;39.62;101263.28;5077014;27;46396;-73
2023/06/11 08:52:01;;;;;;;;;20.50;19.50;;;;;28.68;39.91;101255.00;5074539;27;45407;-73
2023/06/11 08:54:26;;;;;;;;;23.25;21.75;;;;;28.77;39.42;101257.44;5089402;27;45617;-73
2023/06/11 08:56:53;;;;;;;;;25.75;21.75;;;;;28.84;39.43;101250.16;5092668;27;46579;-73
2023/06/11 08:59:19;;;;;;;;;22.25;21.75;;;;;28.93;39.53;101256.09;5092260;27;45470;-74
2023/06/11 09:01:50;;;;;;;;;20.50;17.75;;;;;29.00;39.18;101261.38;5076201;27;45272;-74
2023/06/11 09:04:18;;;;;;;;;20.00;17.75;;;;;29.03;39.11;101251.06;5076917;28;45510;-73
2023/06/11 09:07:10;;;;;;;;;19.75;19.50;;;;;29.13;39.26;101255.94;5076835;28;45421;-74
2023/06/11 09:09:36;;;;;;;;;19.50;19.00;;;;;29.18;39.06;101252.59;5088140;27;45388;-74
2023/06/11 09:12:08;;;;;;;;;23.25;22.50;;;;;29.24;39.41;101262.47;5076971;28;45831;-74
2023/06/11 09:14:33;;;;;;;;;18.00;17.75;;;;;29.26;38.65;101260.38;5076635;27;45453;-74
2023/06/11 09:16:58;;;;;;;;;20.50;18.00;;;;;29.34;38.94;101267.31;5076970;27;46512;-74
2023/06/11 09:19:24;;;;;;;;;21.25;19.75;;;;;29.39;39.12;101264.78;5091101;27;45426;-74
2023/06/11 09:21:58;;;;;;;;;20.25;20.25;;;;;29.44;38.96;101260.63;5075622;28;45330;-74
2023/06/11 09:24:24;;;;;;;;;14.25;14.25;;;;;29.50;38.72;101267.78;5074365;27;45595;-74
2023/06/11 09:26:58;;;;;;;;;17.00;16.25;;;;;29.55;38.62;101259.06;5076665;27;46244;-74
2023/06/11 09:29:27;;;;;;;;;19.50;19.25;;;;;29.58;38.56;101266.69;5063878;28;45396;-74
2023/06/11 09:32:02;;;;;;;;;19.00;17.50;;;;;29.68;38.55;101271.50;5070177;27;45489;-74
2023/06/11 09:34:28;;;;;;;;;20.00;17.00;;;;;29.66;38.47;101270.94;5076865;28;45406;-74
2023/06/11 09:36:53;;;;;;;;;19.00;17.50;;;;;29.68;38.33;101258.94;5086488;27;45596;-74
2023/06/11 09:39:19;;;;;;;;;18.75;15.50;;;;;29.76;38.18;101265.91;5066978;27;45462;-74
2023/06/11 09:41:51;;;;;;;;;18.75;18.75;;;;;29.80;38.22;101272.44;5070856;27;45376;-73
2023/06/11 09:44:18;;;;;;;;;15.75;15.00;;;;;29.91;38.20;101286.97;5076363;27;45446;-73
2023/06/11 09:46:44;;;;;;;;;18.50;16.25;;;;;29.95;38.04;101276.63;5078324;27;47044;-74
2023/06/11 09:49:11;;;;;;;;;17.75;15.75;;;;;29.98;38.28;101278.84;5076033;28;45470;-74
2023/06/11 09:51:39;;;;;;;;;18.00;16.00;;;;;30.05;37.84;101276.09;5076247;27;45316;-74
2023/06/11 09:54:06;;;;;;;;;15.00;15.00;;;;;30.05;37.96;101276.09;5075803;27;45410;-74
2023/06/11 09:56:34;;;;;;;;;16.75;16.75;;;;;30.09;37.77;101276.44;5076107;27;45676;-74
2023/06/11 09:59:01;;;;;;;;;15.00;12.00;;;;;30.12;37.76;101284.03;5076796;27;45288;-74
2023/06/11 10:01:29;;;;;;;;;16.25;15.25;;;;;30.15;37.92;101280.91;5076122;27;45388;-74
2023/06/11 10:03:55;;;;;;;;;17.50;16.00;;;;;30.15;37.75;101276.38;5076297;28;45355;-74
2023/06/11 10:06:28;;;;;;;;;18.25;17.00;;;;;30.12;37.72;101274.13;5076172;27;45493;-74
2023/06/11 10:08:57;;;;;;;;;14.00;13.75;;;;;30.18;37.92;101272.41;5083518;27;45350;-73
2023/06/11 10:11:25;;;;;;;;;14.50;13.50;;;;;30.22;37.29;101283.50;5071369;27;45378;-73
2023/06/11 10:13:59;;;;;;;;;16.75;15.50;;;;;30.23;37.23;101288.66;5068611;28;45289;-74
2023/06/11 10:16:25;;;;;;;;;13.75;13.00;;;;;30.24;37.77;101279.56;5066333;28;45699;-74
2023/06/11 10:18:51;;;;;;;;;14.00;13.00;;;;;30.30;37.52;101291.25;5075921;27;45289;-74
2023/06/11 10:21:18;;;;;;;;;16.67;15.00;;;;;30.28;37.50;101291.50;5075726;27;45379;-74
2023/06/11 10:23:51;;;;;;;;;19.75;16.75;;;;;30.32;37.78;101294.53;5075903;27;45474;-74
2023/06/11 10:26:17;;;;;;;;;14.00;14.00;;;;;30.25;37.67;101283.06;5075065;28;45819;-74
2023/06/11 10:28:49;;;;;;;;;17.25;13.50;;;;;30.18;37.69;101270.56;5075419;27;45466;-74
2023/06/11 10:31:39;;;;;;;;;13.25;12.00;;;;;30.27;37.51;101286.34;5075815;28;45361;-74
2023/06/11 10:34:05;;;;;;;;;13.00;12.75;;;;;30.32;37.62;101299.88;5080201;27;45402;-74
2023/06/11 10:36:38;;;;;;;;;15.50;14.25;;;;;30.32;37.38;101299.09;5082987;27;45529;-74
2023/06/11 10:39:09;;;;;;;;;12.00;12.00;;;;;30.25;37.46;101286.56;5068994;28;45446;-74
2023/06/11 10:41:42;;;;;;;;;11.67;11.67;;;;;30.16;37.67;101280.69;5069220;27;45333;-73
2023/06/11 10:44:09;;;;;;;;;11.25;11.25;;;;;30.26;37.57;101290.06;5075783;28;45387;-73
2023/06/11 10:46:48;;;;;;;;;16.33;15.00;;;;;30.20;37.89;101285.59;5075120;28;45445;-73
2023/06/11 10:49:19;;;;;;;;;15.00;14.00;;;;;30.26;37.92;101292.75;5075421;28;45492;-73
2023/06/11 10:51:46;;;;;;;;;13.00;13.00;;;;;30.26;37.53;101296.28;5074829;27;45462;-73
2023/06/11 10:54:23;;;;;;;;;12.25;12.00;;;;;30.29;37.51;101300.38;5074611;28;45502;-74
2023/06/11 10:56:48;;;;;;;;;13.00;12.00;;;;;30.22;37.55;101295.06;5075082;28;46689;-74
2023/06/11 10:59:15;;;;;;;;;13.00;13.00;;;;;30.29;37.58;101309.22;5074042;28;45387;-74
2023/06/11 11:01:40;;;;;;;;;13.00;13.00;;;;;30.26;37.54;101298.97;5075453;28;45481;-73
2023/06/11 11:04:06;;;;;;;;;15.67;13.33;;;;;30.28;37.34;101310.28;5075271;27;45410;-74
2023/06/11 11:06:33;;;;;;;;;14.75;14.00;;;;;30.33;37.74;101312.31;5087174;27;47566;-74
2023/06/11 11:08:59;;;;;;;;;12.00;11.50;;;;;30.31;37.85;101317.06;5068246;27;45452;-75